Terminal Aerodrome Forecast
Issued by NWS Sterling, VA

Current Version | Previous Version | Graphics & Text | Print | Product List | Glossary On
Versions: 1 2 3 4 5 6 7 8 9 10 11 12 13 14 15 16 17 18 19 20 21 22 23 24 25 26 27 28
000
FTUS41 KLWX 201012 AAB
TAFDCA
TAF AMD
KDCA 201012Z 2010/2106 33013G24KT P6SM SKC
     FM202300 32007KT P6SM FEW040 SCT140
     FM210400 VRB03KT P6SM BKN120=

USA.gov is the U.S. government's official web portal to all federal, state and local government web resources and services.